sensor_id;sensor_type;location;lat;lon;timestamp;P1;durP1;ratioP1;P2;durP2;ratioP2
48871;SDS011;36154;51.674;7.824;2022-08-19T00:00:11;2.33;;;2.00;;
48871;SDS011;36154;51.674;7.824;2022-08-19T00:02:39;3.30;;;2.60;;
48871;SDS011;36154;51.674;7.824;2022-08-19T00:05:06;6.28;;;2.80;;
48871;SDS011;36154;51.674;7.824;2022-08-19T00:07:32;3.42;;;3.13;;
48871;SDS011;36154;51.674;7.824;2022-08-19T00:09:57;3.10;;;2.90;;
48871;SDS011;36154;51.674;7.824;2022-08-19T00:12:23;3.17;;;2.88;;
48871;SDS011;36154;51.674;7.824;2022-08-19T00:14:48;2.35;;;2.25;;
48871;SDS011;36154;51.674;7.824;2022-08-19T00:17:13;2.40;;;2.20;;
48871;SDS011;36154;51.674;7.824;2022-08-19T00:19:39;3.30;;;2.90;;
48871;SDS011;36154;51.674;7.824;2022-08-19T00:22:05;3.05;;;2.75;;
48871;SDS011;36154;51.674;7.824;2022-08-19T00:24:33;2.85;;;2.63;;
48871;SDS011;36154;51.674;7.824;2022-08-19T00:26:59;2.67;;;2.42;;
48871;SDS011;36154;51.674;7.824;2022-08-19T00:29:26;2.92;;;2.53;;
48871;SDS011;36154;51.674;7.824;2022-08-19T00:31:52;4.10;;;2.45;;
48871;SDS011;36154;51.674;7.824;2022-08-19T00:34:20;3.85;;;2.90;;
48871;SDS011;36154;51.674;7.824;2022-08-19T00:36:46;3.30;;;3.00;;
48871;SDS011;36154;51.674;7.824;2022-08-19T00:39:12;4.32;;;2.88;;
48871;SDS011;36154;51.674;7.824;2022-08-19T00:41:38;3.10;;;2.50;;
48871;SDS011;36154;51.674;7.824;2022-08-19T00:44:12;3.25;;;3.05;;
48871;SDS011;36154;51.674;7.824;2022-08-19T00:46:44;4.25;;;2.97;;
48871;SDS011;36154;51.674;7.824;2022-08-19T00:49:15;3.20;;;2.90;;
48871;SDS011;36154;51.674;7.824;2022-08-19T00:51:45;2.72;;;2.55;;
48871;SDS011;36154;51.674;7.824;2022-08-19T00:54:13;4.07;;;2.63;;
48871;SDS011;36154;51.674;7.824;2022-08-19T00:56:39;3.20;;;2.90;;
48871;SDS011;36154;51.674;7.824;2022-08-19T00:59:05;2.88;;;2.75;;
48871;SDS011;36154;51.674;7.824;2022-08-19T01:01:41;5.93;;;3.00;;
48871;SDS011;36154;51.674;7.824;2022-08-19T01:04:07;3.40;;;2.75;;
48871;SDS011;36154;51.674;7.824;2022-08-19T01:06:33;3.20;;;3.00;;
48871;SDS011;36154;51.674;7.824;2022-08-19T01:09:02;2.88;;;2.67;;
48871;SDS011;36154;51.674;7.824;2022-08-19T01:11:28;4.15;;;2.78;;
48871;SDS011;36154;51.674;7.824;2022-08-19T01:13:56;3.53;;;3.17;;
48871;SDS011;36154;51.674;7.824;2022-08-19T01:16:24;3.53;;;3.25;;
48871;SDS011;36154;51.674;7.824;2022-08-19T01:18:52;3.38;;;3.17;;
48871;SDS011;36154;51.674;7.824;2022-08-19T01:21:30;2.88;;;2.67;;
48871;SDS011;36154;51.674;7.824;2022-08-19T01:23:59;2.88;;;2.67;;
48871;SDS011;36154;51.674;7.824;2022-08-19T01:26:26;2.92;;;2.72;;
48871;SDS011;36154;51.674;7.824;2022-08-19T01:28:53;3.45;;;3.20;;
48871;SDS011;36154;51.674;7.824;2022-08-19T01:31:22;3.40;;;3.20;;
48871;SDS011;36154;51.674;7.824;2022-08-19T01:33:50;2.80;;;2.55;;
48871;SDS011;36154;51.674;7.824;2022-08-19T01:38:51;3.08;;;2.88;;
48871;SDS011;36154;51.674;7.824;2022-08-19T01:41:17;3.25;;;3.00;;
48871;SDS011;36154;51.674;7.824;2022-08-19T01:43:42;3.40;;;3.13;;
48871;SDS011;36154;51.674;7.824;2022-08-19T01:46:08;7.78;;;3.50;;
48871;SDS011;36154;51.674;7.824;2022-08-19T01:48:35;3.42;;;3.22;;
48871;SDS011;36154;51.674;7.824;2022-08-19T01:51:03;3.58;;;3.35;;
48871;SDS011;36154;51.674;7.824;2022-08-19T01:53:29;5.00;;;3.70;;
48871;SDS011;36154;51.674;7.824;2022-08-19T01:55:55;4.07;;;3.65;;
48871;SDS011;36154;51.674;7.824;2022-08-19T01:58:21;3.97;;;3.22;;
48871;SDS011;36154;51.674;7.824;2022-08-19T02:00:49;4.68;;;3.90;;
48871;SDS011;36154;51.674;7.824;2022-08-19T02:03:15;5.82;;;4.38;;
48871;SDS011;36154;51.674;7.824;2022-08-19T02:05:41;4.10;;;3.80;;
48871;SDS011;36154;51.674;7.824;2022-08-19T02:08:07;2.97;;;2.88;;
48871;SDS011;36154;51.674;7.824;2022-08-19T02:10:34;4.57;;;4.20;;
48871;SDS011;36154;51.674;7.824;2022-08-19T02:13:04;4.78;;;4.38;;
48871;SDS011;36154;51.674;7.824;2022-08-19T02:15:29;5.07;;;4.63;;
48871;SDS011;36154;51.674;7.824;2022-08-19T02:17:55;5.68;;;5.00;;
48871;SDS011;36154;51.674;7.824;2022-08-19T02:20:20;4.45;;;4.07;;
48871;SDS011;36154;51.674;7.824;2022-08-19T02:22:45;5.43;;;4.18;;
48871;SDS011;36154;51.674;7.824;2022-08-19T02:25:11;4.57;;;3.97;;
48871;SDS011;36154;51.674;7.824;2022-08-19T02:27:38;4.63;;;4.32;;
48871;SDS011;36154;51.674;7.824;2022-08-19T02:30:05;4.93;;;4.50;;
48871;SDS011;36154;51.674;7.824;2022-08-19T02:32:32;4.60;;;4.20;;
48871;SDS011;36154;51.674;7.824;2022-08-19T02:34:58;4.70;;;4.30;;
48871;SDS011;36154;51.674;7.824;2022-08-19T02:37:23;4.50;;;4.20;;
48871;SDS011;36154;51.674;7.824;2022-08-19T02:40:07;4.55;;;4.10;;
48871;SDS011;36154;51.674;7.824;2022-08-19T02:42:33;5.60;;;3.60;;
48871;SDS011;36154;51.674;7.824;2022-08-19T02:44:59;5.03;;;4.55;;
48871;SDS011;36154;51.674;7.824;2022-08-19T02:47:25;4.68;;;4.28;;
48871;SDS011;36154;51.674;7.824;2022-08-19T02:49:50;4.32;;;3.92;;
48871;SDS011;36154;51.674;7.824;2022-08-19T02:52:15;5.25;;;4.78;;
48871;SDS011;36154;51.674;7.824;2022-08-19T02:54:41;8.77;;;5.10;;
48871;SDS011;36154;51.674;7.824;2022-08-19T02:57:07;5.63;;;4.47;;
48871;SDS011;36154;51.674;7.824;2022-08-19T02:59:32;4.75;;;4.35;;
48871;SDS011;36154;51.674;7.824;2022-08-19T03:01:58;6.18;;;5.68;;
48871;SDS011;36154;51.674;7.824;2022-08-19T03:04:24;11.07;;;5.13;;
48871;SDS011;36154;51.674;7.824;2022-08-19T03:06:50;11.52;;;5.65;;
48871;SDS011;36154;51.674;7.824;2022-08-19T03:09:19;12.65;;;6.03;;
48871;SDS011;36154;51.674;7.824;2022-08-19T03:11:45;6.57;;;5.93;;
48871;SDS011;36154;51.674;7.824;2022-08-19T03:14:11;8.13;;;5.43;;
48871;SDS011;36154;51.674;7.824;2022-08-19T03:16:41;7.72;;;5.55;;
48871;SDS011;36154;51.674;7.824;2022-08-19T03:19:12;10.23;;;5.50;;
48871;SDS011;36154;51.674;7.824;2022-08-19T03:21:38;9.07;;;5.47;;
48871;SDS011;36154;51.674;7.824;2022-08-19T03:24:05;7.65;;;6.10;;
48871;SDS011;36154;51.674;7.824;2022-08-19T03:26:32;8.48;;;6.40;;
48871;SDS011;36154;51.674;7.824;2022-08-19T03:29:01;11.93;;;6.47;;
48871;SDS011;36154;51.674;7.824;2022-08-19T03:31:28;11.93;;;6.57;;
48871;SDS011;36154;51.674;7.824;2022-08-19T03:33:53;15.35;;;7.30;;
48871;SDS011;36154;51.674;7.824;2022-08-19T03:36:20;15.55;;;7.47;;
48871;SDS011;36154;51.674;7.824;2022-08-19T03:38:51;13.13;;;8.50;;
48871;SDS011;36154;51.674;7.824;2022-08-19T03:41:20;10.77;;;8.13;;
48871;SDS011;36154;51.674;7.824;2022-08-19T03:43:47;14.15;;;8.63;;
48871;SDS011;36154;51.674;7.824;2022-08-19T03:46:17;12.90;;;8.52;;
48871;SDS011;36154;51.674;7.824;2022-08-19T03:48:48;12.07;;;7.72;;
48871;SDS011;36154;51.674;7.824;2022-08-19T03:51:25;12.60;;;8.38;;
48871;SDS011;36154;51.674;7.824;2022-08-19T03:53:50;13.88;;;9.80;;
48871;SDS011;36154;51.674;7.824;2022-08-19T03:56:16;13.35;;;8.60;;
48871;SDS011;36154;51.674;7.824;2022-08-19T03:58:42;10.50;;;9.40;;
48871;SDS011;36154;51.674;7.824;2022-08-19T04:01:09;14.65;;;9.93;;
48871;SDS011;36154;51.674;7.824;2022-08-19T04:03:37;12.55;;;9.25;;
48871;SDS011;36154;51.674;7.824;2022-08-19T04:06:13;10.52;;;9.52;;
48871;SDS011;36154;51.674;7.824;2022-08-19T04:08:41;10.65;;;8.80;;
48871;SDS011;36154;51.674;7.824;2022-08-19T04:11:08;9.57;;;8.23;;
48871;SDS011;36154;51.674;7.824;2022-08-19T04:13:35;7.18;;;6.50;;
48871;SDS011;36154;51.674;7.824;2022-08-19T04:16:00;8.82;;;6.90;;
48871;SDS011;36154;51.674;7.824;2022-08-19T04:18:25;8.90;;;6.50;;
48871;SDS011;36154;51.674;7.824;2022-08-19T04:20:51;8.60;;;6.63;;
48871;SDS011;36154;51.674;7.824;2022-08-19T04:23:16;6.68;;;6.00;;
48871;SDS011;36154;51.674;7.824;2022-08-19T04:25:42;7.97;;;5.95;;
48871;SDS011;36154;51.674;7.824;2022-08-19T04:28:09;6.28;;;5.72;;
48871;SDS011;36154;51.674;7.824;2022-08-19T04:30:43;9.55;;;6.13;;
48871;SDS011;36154;51.674;7.824;2022-08-19T04:33:14;5.78;;;5.25;;
48871;SDS011;36154;51.674;7.824;2022-08-19T04:35:42;7.82;;;6.28;;
48871;SDS011;36154;51.674;7.824;2022-08-19T04:38:10;8.70;;;6.03;;
48871;SDS011;36154;51.674;7.824;2022-08-19T04:40:43;6.70;;;5.72;;
48871;SDS011;36154;51.674;7.824;2022-08-19T04:43:28;5.70;;;5.03;;
48871;SDS011;36154;51.674;7.824;2022-08-19T04:45:54;7.95;;;6.07;;
48871;SDS011;36154;51.674;7.824;2022-08-19T04:48:19;7.47;;;5.93;;
48871;SDS011;36154;51.674;7.824;2022-08-19T04:50:50;9.93;;;6.85;;
48871;SDS011;36154;51.674;7.824;2022-08-19T04:53:21;10.20;;;7.45;;
48871;SDS011;36154;51.674;7.824;2022-08-19T04:55:47;10.02;;;7.40;;
48871;SDS011;36154;51.674;7.824;2022-08-19T04:58:12;10.05;;;7.63;;
48871;SDS011;36154;51.674;7.824;2022-08-19T05:00:38;8.95;;;8.05;;
48871;SDS011;36154;51.674;7.824;2022-08-19T05:03:04;12.85;;;8.85;;
48871;SDS011;36154;51.674;7.824;2022-08-19T05:05:30;13.90;;;8.68;;
48871;SDS011;36154;51.674;7.824;2022-08-19T05:07:56;10.93;;;9.48;;
48871;SDS011;36154;51.674;7.824;2022-08-19T05:10:22;17.08;;;10.23;;
48871;SDS011;36154;51.674;7.824;2022-08-19T05:12:47;12.65;;;10.48;;
48871;SDS011;36154;51.674;7.824;2022-08-19T05:15:12;11.77;;;10.15;;
48871;SDS011;36154;51.674;7.824;2022-08-19T05:17:38;12.02;;;10.45;;
48871;SDS011;36154;51.674;7.824;2022-08-19T05:20:23;11.88;;;10.63;;
48871;SDS011;36154;51.674;7.824;2022-08-19T05:23:12;13.32;;;11.50;;
48871;SDS011;36154;51.674;7.824;2022-08-19T05:25:40;14.45;;;11.70;;
48871;SDS011;36154;51.674;7.824;2022-08-19T05:28:05;16.10;;;12.40;;
48871;SDS011;36154;51.674;7.824;2022-08-19T05:30:30;15.48;;;12.30;;
48871;SDS011;36154;51.674;7.824;2022-08-19T05:32:57;17.45;;;12.07;;
48871;SDS011;36154;51.674;7.824;2022-08-19T05:35:22;14.40;;;12.55;;
48871;SDS011;36154;51.674;7.824;2022-08-19T05:37:48;17.92;;;11.85;;
48871;SDS011;36154;51.674;7.824;2022-08-19T05:40:14;19.25;;;12.27;;
48871;SDS011;36154;51.674;7.824;2022-08-19T05:42:39;18.83;;;13.10;;
48871;SDS011;36154;51.674;7.824;2022-08-19T05:45:05;24.25;;;14.30;;
48871;SDS011;36154;51.674;7.824;2022-08-19T05:47:31;25.45;;;14.38;;
48871;SDS011;36154;51.674;7.824;2022-08-19T05:49:57;21.90;;;15.38;;
48871;SDS011;36154;51.674;7.824;2022-08-19T05:52:22;23.45;;;15.75;;
48871;SDS011;36154;51.674;7.824;2022-08-19T05:54:47;25.98;;;16.15;;
48871;SDS011;36154;51.674;7.824;2022-08-19T05:57:13;29.55;;;16.77;;
48871;SDS011;36154;51.674;7.824;2022-08-19T05:59:38;21.38;;;15.65;;
48871;SDS011;36154;51.674;7.824;2022-08-19T06:02:04;27.33;;;17.27;;
48871;SDS011;36154;51.674;7.824;2022-08-19T06:04:31;25.15;;;15.80;;
48871;SDS011;36154;51.674;7.824;2022-08-19T06:06:56;24.92;;;16.55;;
48871;SDS011;36154;51.674;7.824;2022-08-19T06:09:23;29.02;;;15.65;;
48871;SDS011;36154;51.674;7.824;2022-08-19T06:11:49;36.05;;;17.00;;
48871;SDS011;36154;51.674;7.824;2022-08-19T06:14:21;33.63;;;17.67;;
48871;SDS011;36154;51.674;7.824;2022-08-19T06:16:48;37.85;;;15.75;;
48871;SDS011;36154;51.674;7.824;2022-08-19T06:19:17;28.75;;;16.67;;
48871;SDS011;36154;51.674;7.824;2022-08-19T06:21:45;32.05;;;18.15;;
48871;SDS011;36154;51.674;7.824;2022-08-19T06:24:13;29.10;;;19.17;;
48871;SDS011;36154;51.674;7.824;2022-08-19T06:26:43;30.15;;;18.13;;
48871;SDS011;36154;51.674;7.824;2022-08-19T06:29:11;22.70;;;15.77;;
48871;SDS011;36154;51.674;7.824;2022-08-19T06:31:40;23.42;;;16.55;;
48871;SDS011;36154;51.674;7.824;2022-08-19T06:34:07;24.60;;;16.75;;
48871;SDS011;36154;51.674;7.824;2022-08-19T06:36:35;22.00;;;16.65;;
48871;SDS011;36154;51.674;7.824;2022-08-19T06:39:10;32.35;;;18.45;;
48871;SDS011;36154;51.674;7.824;2022-08-19T06:41:38;28.05;;;17.65;;
48871;SDS011;36154;51.674;7.824;2022-08-19T06:44:05;18.45;;;15.43;;
48871;SDS011;36154;51.674;7.824;2022-08-19T06:46:31;20.77;;;15.93;;
48871;SDS011;36154;51.674;7.824;2022-08-19T06:48:57;19.35;;;15.65;;
48871;SDS011;36154;51.674;7.824;2022-08-19T06:51:24;23.70;;;18.52;;
48871;SDS011;36154;51.674;7.824;2022-08-19T06:53:51;20.10;;;16.13;;
48871;SDS011;36154;51.674;7.824;2022-08-19T06:56:19;22.33;;;13.15;;
48871;SDS011;36154;51.674;7.824;2022-08-19T06:58:49;18.95;;;15.63;;
48871;SDS011;36154;51.674;7.824;2022-08-19T07:01:17;19.35;;;15.10;;
48871;SDS011;36154;51.674;7.824;2022-08-19T07:03:43;18.35;;;16.42;;
48871;SDS011;36154;51.674;7.824;2022-08-19T07:06:10;17.20;;;14.63;;
48871;SDS011;36154;51.674;7.824;2022-08-19T07:08:39;25.90;;;15.18;;
48871;SDS011;36154;51.674;7.824;2022-08-19T07:11:08;27.40;;;14.90;;
48871;SDS011;36154;51.674;7.824;2022-08-19T07:13:35;18.55;;;14.35;;
48871;SDS011;36154;51.674;7.824;2022-08-19T07:16:09;16.42;;;13.23;;
48871;SDS011;36154;51.674;7.824;2022-08-19T07:18:37;20.90;;;14.23;;
48871;SDS011;36154;51.674;7.824;2022-08-19T07:21:22;21.02;;;15.40;;
48871;SDS011;36154;51.674;7.824;2022-08-19T07:23:49;23.05;;;15.18;;
48871;SDS011;36154;51.674;7.824;2022-08-19T07:26:21;24.45;;;17.00;;
48871;SDS011;36154;51.674;7.824;2022-08-19T07:31:16;18.42;;;13.75;;
48871;SDS011;36154;51.674;7.824;2022-08-19T07:33:44;18.48;;;15.15;;
48871;SDS011;36154;51.674;7.824;2022-08-19T07:36:11;23.08;;;15.20;;
48871;SDS011;36154;51.674;7.824;2022-08-19T07:38:38;16.75;;;12.20;;
48871;SDS011;36154;51.674;7.824;2022-08-19T07:41:12;21.95;;;13.88;;
48871;SDS011;36154;51.674;7.824;2022-08-19T07:43:43;17.65;;;12.60;;
48871;SDS011;36154;51.674;7.824;2022-08-19T07:46:09;19.40;;;14.18;;
48871;SDS011;36154;51.674;7.824;2022-08-19T07:48:35;16.77;;;12.48;;
48871;SDS011;36154;51.674;7.824;2022-08-19T07:51:02;20.00;;;13.48;;
48871;SDS011;36154;51.674;7.824;2022-08-19T07:53:29;17.55;;;12.35;;
48871;SDS011;36154;51.674;7.824;2022-08-19T07:55:56;21.52;;;12.35;;
48871;SDS011;36154;51.674;7.824;2022-08-19T07:58:29;21.43;;;12.30;;
48871;SDS011;36154;51.674;7.824;2022-08-19T08:00:56;20.63;;;12.73;;
48871;SDS011;36154;51.674;7.824;2022-08-19T08:03:22;12.50;;;11.15;;
48871;SDS011;36154;51.674;7.824;2022-08-19T08:06:11;14.55;;;10.20;;
48871;SDS011;36154;51.674;7.824;2022-08-19T08:09:07;17.30;;;11.77;;
48871;SDS011;36154;51.674;7.824;2022-08-19T08:11:44;16.42;;;11.93;;
48871;SDS011;36154;51.674;7.824;2022-08-19T08:14:15;17.23;;;11.15;;
48871;SDS011;36154;51.674;7.824;2022-08-19T08:16:44;17.25;;;11.27;;
48871;SDS011;36154;51.674;7.824;2022-08-19T08:19:10;14.65;;;11.52;;
48871;SDS011;36154;51.674;7.824;2022-08-19T08:21:36;15.95;;;11.88;;
48871;SDS011;36154;51.674;7.824;2022-08-19T08:24:01;15.02;;;10.15;;
48871;SDS011;36154;51.674;7.824;2022-08-19T08:26:27;15.60;;;11.50;;
48871;SDS011;36154;51.674;7.824;2022-08-19T08:28:52;13.90;;;11.25;;
48871;SDS011;36154;51.674;7.824;2022-08-19T08:31:18;12.30;;;8.88;;
48871;SDS011;36154;51.674;7.824;2022-08-19T08:33:44;8.95;;;7.78;;
48871;SDS011;36154;51.674;7.824;2022-08-19T08:36:12;12.88;;;7.65;;
48871;SDS011;36154;51.674;7.824;2022-08-19T08:38:41;10.55;;;8.00;;
48871;SDS011;36154;51.674;7.824;2022-08-19T08:41:26;11.45;;;6.30;;
48871;SDS011;36154;51.674;7.824;2022-08-19T08:43:59;9.48;;;6.32;;
48871;SDS011;36154;51.674;7.824;2022-08-19T08:46:39;7.38;;;6.60;;
48871;SDS011;36154;51.674;7.824;2022-08-19T08:49:45;10.98;;;7.50;;
48871;SDS011;36154;51.674;7.824;2022-08-19T08:52:17;6.65;;;5.60;;
48871;SDS011;36154;51.674;7.824;2022-08-19T08:54:47;8.80;;;7.47;;
48871;SDS011;36154;51.674;7.824;2022-08-19T08:57:19;10.38;;;8.18;;
48871;SDS011;36154;51.674;7.824;2022-08-19T08:59:48;8.77;;;7.60;;
48871;SDS011;36154;51.674;7.824;2022-08-19T09:02:16;9.13;;;7.97;;
48871;SDS011;36154;51.674;7.824;2022-08-19T09:04:42;10.98;;;8.50;;
48871;SDS011;36154;51.674;7.824;2022-08-19T09:09:51;10.40;;;8.55;;
48871;SDS011;36154;51.674;7.824;2022-08-19T09:14:54;8.20;;;5.40;;
48871;SDS011;36154;51.674;7.824;2022-08-19T09:17:21;11.45;;;8.82;;
48871;SDS011;36154;51.674;7.824;2022-08-19T09:19:53;9.07;;;7.88;;
48871;SDS011;36154;51.674;7.824;2022-08-19T09:22:21;7.20;;;6.50;;
48871;SDS011;36154;51.674;7.824;2022-08-19T09:24:48;7.45;;;6.38;;
48871;SDS011;36154;51.674;7.824;2022-08-19T09:27:15;5.75;;;5.13;;
48871;SDS011;36154;51.674;7.824;2022-08-19T09:29:40;4.90;;;4.50;;
48871;SDS011;36154;51.674;7.824;2022-08-19T09:32:06;5.40;;;4.82;;
48871;SDS011;36154;51.674;7.824;2022-08-19T09:34:31;5.65;;;4.63;;
48871;SDS011;36154;51.674;7.824;2022-08-19T09:36:57;5.68;;;4.15;;
48871;SDS011;36154;51.674;7.824;2022-08-19T09:39:25;5.82;;;4.55;;
48871;SDS011;36154;51.674;7.824;2022-08-19T09:41:50;4.95;;;4.45;;
48871;SDS011;36154;51.674;7.824;2022-08-19T09:44:16;5.10;;;4.60;;
48871;SDS011;36154;51.674;7.824;2022-08-19T09:46:41;4.65;;;4.30;;
48871;SDS011;36154;51.674;7.824;2022-08-19T09:49:07;4.50;;;4.10;;
48871;SDS011;36154;51.674;7.824;2022-08-19T09:51:32;3.67;;;3.15;;
48871;SDS011;36154;51.674;7.824;2022-08-19T09:53:58;4.40;;;3.17;;
48871;SDS011;36154;51.674;7.824;2022-08-19T09:56:26;5.53;;;3.85;;
48871;SDS011;36154;51.674;7.824;2022-08-19T09:58:51;4.60;;;4.30;;
48871;SDS011;36154;51.674;7.824;2022-08-19T10:01:18;4.72;;;4.38;;
48871;SDS011;36154;51.674;7.824;2022-08-19T10:03:49;6.80;;;4.10;;
48871;SDS011;36154;51.674;7.824;2022-08-19T10:06:18;5.38;;;3.70;;
48871;SDS011;36154;51.674;7.824;2022-08-19T10:08:44;3.92;;;3.63;;
48871;SDS011;36154;51.674;7.824;2022-08-19T10:11:10;3.55;;;3.30;;
48871;SDS011;36154;51.674;7.824;2022-08-19T10:13:35;3.25;;;3.00;;
48871;SDS011;36154;51.674;7.824;2022-08-19T10:16:03;3.65;;;3.35;;
48871;SDS011;36154;51.674;7.824;2022-08-19T10:18:31;3.80;;;2.78;;
48871;SDS011;36154;51.674;7.824;2022-08-19T10:21:18;4.20;;;2.80;;
48871;SDS011;36154;51.674;7.824;2022-08-19T10:23:47;2.08;;;1.98;;
48871;SDS011;36154;51.674;7.824;2022-08-19T10:26:16;3.00;;;2.80;;
48871;SDS011;36154;51.674;7.824;2022-08-19T10:28:50;2.80;;;2.60;;
48871;SDS011;36154;51.674;7.824;2022-08-19T10:31:18;3.95;;;3.30;;
48871;SDS011;36154;51.674;7.824;2022-08-19T10:33:46;3.58;;;3.28;;
48871;SDS011;36154;51.674;7.824;2022-08-19T10:36:13;3.20;;;2.90;;
48871;SDS011;36154;51.674;7.824;2022-08-19T10:38:46;4.15;;;3.75;;
48871;SDS011;36154;51.674;7.824;2022-08-19T10:41:15;3.63;;;3.20;;
48871;SDS011;36154;51.674;7.824;2022-08-19T10:43:42;4.15;;;3.05;;
48871;SDS011;36154;51.674;7.824;2022-08-19T10:46:10;3.88;;;3.58;;
48871;SDS011;36154;51.674;7.824;2022-08-19T10:48:37;3.42;;;3.13;;
48871;SDS011;36154;51.674;7.824;2022-08-19T10:51:03;7.00;;;4.32;;
48871;SDS011;36154;51.674;7.824;2022-08-19T10:53:48;7.45;;;3.72;;
48871;SDS011;36154;51.674;7.824;2022-08-19T10:56:13;9.45;;;3.20;;
48871;SDS011;36154;51.674;7.824;2022-08-19T10:58:58;4.85;;;3.00;;
48871;SDS011;36154;51.674;7.824;2022-08-19T11:01:24;6.70;;;3.80;;
48871;SDS011;36154;51.674;7.824;2022-08-19T11:03:50;4.68;;;3.78;;
48871;SDS011;36154;51.674;7.824;2022-08-19T11:06:16;3.70;;;3.20;;
48871;SDS011;36154;51.674;7.824;2022-08-19T11:08:41;3.97;;;3.05;;
48871;SDS011;36154;51.674;7.824;2022-08-19T11:11:08;2.92;;;2.72;;
48871;SDS011;36154;51.674;7.824;2022-08-19T11:13:35;2.97;;;2.78;;
48871;SDS011;36154;51.674;7.824;2022-08-19T11:16:05;3.95;;;2.97;;
48871;SDS011;36154;51.674;7.824;2022-08-19T11:18:33;2.92;;;2.72;;
48871;SDS011;36154;51.674;7.824;2022-08-19T11:21:08;3.40;;;2.80;;
48871;SDS011;36154;51.674;7.824;2022-08-19T11:23:36;3.50;;;2.50;;
48871;SDS011;36154;51.674;7.824;2022-08-19T11:26:02;3.08;;;2.88;;
48871;SDS011;36154;51.674;7.824;2022-08-19T11:28:27;3.78;;;2.95;;
48871;SDS011;36154;51.674;7.824;2022-08-19T11:30:53;4.18;;;2.92;;
48871;SDS011;36154;51.674;7.824;2022-08-19T11:33:18;3.08;;;2.30;;
48871;SDS011;36154;51.674;7.824;2022-08-19T11:35:44;3.63;;;2.85;;
48871;SDS011;36154;51.674;7.824;2022-08-19T11:38:09;3.00;;;2.80;;
48871;SDS011;36154;51.674;7.824;2022-08-19T11:40:36;3.38;;;3.08;;
48871;SDS011;36154;51.674;7.824;2022-08-19T11:43:01;3.50;;;3.30;;
48871;SDS011;36154;51.674;7.824;2022-08-19T11:45:27;3.70;;;3.47;;
48871;SDS011;36154;51.674;7.824;2022-08-19T11:47:54;3.95;;;3.33;;
48871;SDS011;36154;51.674;7.824;2022-08-19T11:50:20;4.75;;;3.47;;
48871;SDS011;36154;51.674;7.824;2022-08-19T11:52:46;3.53;;;3.28;;
48871;SDS011;36154;51.674;7.824;2022-08-19T11:55:12;3.25;;;2.97;;
48871;SDS011;36154;51.674;7.824;2022-08-19T11:57:38;2.90;;;2.72;;
48871;SDS011;36154;51.674;7.824;2022-08-19T12:00:05;3.15;;;2.95;;
48871;SDS011;36154;51.674;7.824;2022-08-19T12:02:32;3.38;;;3.05;;
48871;SDS011;36154;51.674;7.824;2022-08-19T12:04:58;3.42;;;3.13;;
48871;SDS011;36154;51.674;7.824;2022-08-19T12:07:23;3.35;;;3.05;;
48871;SDS011;36154;51.674;7.824;2022-08-19T12:09:49;3.50;;;3.30;;
48871;SDS011;36154;51.674;7.824;2022-08-19T12:12:15;2.72;;;2.53;;
48871;SDS011;36154;51.674;7.824;2022-08-19T12:14:41;2.95;;;2.85;;
48871;SDS011;36154;51.674;7.824;2022-08-19T12:17:06;4.88;;;3.33;;
48871;SDS011;36154;51.674;7.824;2022-08-19T12:19:33;3.75;;;3.53;;
48871;SDS011;36154;51.674;7.824;2022-08-19T12:21:59;3.63;;;3.40;;
48871;SDS011;36154;51.674;7.824;2022-08-19T12:24:29;2.85;;;2.65;;
48871;SDS011;36154;51.674;7.824;2022-08-19T12:26:57;3.78;;;3.55;;
48871;SDS011;36154;51.674;7.824;2022-08-19T12:29:23;4.53;;;3.70;;
48871;SDS011;36154;51.674;7.824;2022-08-19T12:31:53;5.03;;;3.95;;
48871;SDS011;36154;51.674;7.824;2022-08-19T12:34:19;5.00;;;3.60;;
48871;SDS011;36154;51.674;7.824;2022-08-19T12:36:45;4.72;;;3.50;;
48871;SDS011;36154;51.674;7.824;2022-08-19T12:39:10;3.80;;;3.50;;
48871;SDS011;36154;51.674;7.824;2022-08-19T12:41:36;4.15;;;3.90;;
48871;SDS011;36154;51.674;7.824;2022-08-19T12:44:02;3.83;;;3.50;;
48871;SDS011;36154;51.674;7.824;2022-08-19T12:46:27;4.43;;;3.95;;
48871;SDS011;36154;51.674;7.824;2022-08-19T12:48:53;5.00;;;4.57;;
48871;SDS011;36154;51.674;7.824;2022-08-19T12:51:19;4.95;;;4.45;;
48871;SDS011;36154;51.674;7.824;2022-08-19T12:53:45;5.32;;;4.95;;
48871;SDS011;36154;51.674;7.824;2022-08-19T12:56:11;6.68;;;5.32;;
48871;SDS011;36154;51.674;7.824;2022-08-19T12:58:39;5.80;;;5.30;;
48871;SDS011;36154;51.674;7.824;2022-08-19T13:01:11;7.05;;;4.97;;
48871;SDS011;36154;51.674;7.824;2022-08-19T13:03:39;6.37;;;5.20;;
48871;SDS011;36154;51.674;7.824;2022-08-19T13:06:11;7.60;;;5.00;;
48871;SDS011;36154;51.674;7.824;2022-08-19T13:08:37;5.80;;;4.60;;
48871;SDS011;36154;51.674;7.824;2022-08-19T13:11:10;4.47;;;4.28;;
48871;SDS011;36154;51.674;7.824;2022-08-19T13:13:38;4.55;;;4.25;;
48871;SDS011;36154;51.674;7.824;2022-08-19T13:16:06;4.35;;;3.90;;
48871;SDS011;36154;51.674;7.824;2022-08-19T13:18:32;4.70;;;4.40;;
48871;SDS011;36154;51.674;7.824;2022-08-19T13:21:01;6.82;;;4.38;;
48871;SDS011;36154;51.674;7.824;2022-08-19T13:23:28;6.57;;;4.80;;
48871;SDS011;36154;51.674;7.824;2022-08-19T13:26:00;5.35;;;3.60;;
48871;SDS011;36154;51.674;7.824;2022-08-19T13:28:29;4.53;;;4.22;;
48871;SDS011;36154;51.674;7.824;2022-08-19T13:31:16;8.13;;;4.80;;
48871;SDS011;36154;51.674;7.824;2022-08-19T13:34:03;4.88;;;4.47;;
48871;SDS011;36154;51.674;7.824;2022-08-19T13:36:30;4.22;;;3.97;;
48871;SDS011;36154;51.674;7.824;2022-08-19T13:38:58;7.03;;;4.50;;
48871;SDS011;36154;51.674;7.824;2022-08-19T13:41:24;6.05;;;5.45;;
48871;SDS011;36154;51.674;7.824;2022-08-19T13:43:49;6.95;;;4.82;;
48871;SDS011;36154;51.674;7.824;2022-08-19T13:46:15;5.00;;;4.70;;
48871;SDS011;36154;51.674;7.824;2022-08-19T13:48:40;5.35;;;4.70;;
48871;SDS011;36154;51.674;7.824;2022-08-19T13:51:06;4.85;;;4.47;;
48871;SDS011;36154;51.674;7.824;2022-08-19T13:53:35;4.05;;;3.53;;
48871;SDS011;36154;51.674;7.824;2022-08-19T13:56:04;4.10;;;3.70;;
48871;SDS011;36154;51.674;7.824;2022-08-19T13:58:34;7.40;;;3.70;;
48871;SDS011;36154;51.674;7.824;2022-08-19T14:00:59;4.43;;;4.03;;
48871;SDS011;36154;51.674;7.824;2022-08-19T14:03:25;4.32;;;3.97;;
48871;SDS011;36154;51.674;7.824;2022-08-19T14:05:52;3.53;;;3.00;;
48871;SDS011;36154;51.674;7.824;2022-08-19T14:08:17;4.45;;;3.97;;
48871;SDS011;36154;51.674;7.824;2022-08-19T14:10:44;5.03;;;4.10;;
48871;SDS011;36154;51.674;7.824;2022-08-19T14:13:12;4.43;;;3.92;;
48871;SDS011;36154;51.674;7.824;2022-08-19T14:15:39;4.50;;;4.20;;
48871;SDS011;36154;51.674;7.824;2022-08-19T14:18:05;4.57;;;4.18;;
48871;SDS011;36154;51.674;7.824;2022-08-19T14:20:33;4.28;;;3.88;;
48871;SDS011;36154;51.674;7.824;2022-08-19T14:22:59;4.32;;;4.03;;
48871;SDS011;36154;51.674;7.824;2022-08-19T14:25:26;4.60;;;4.25;;
48871;SDS011;36154;51.674;7.824;2022-08-19T14:27:52;4.32;;;4.00;;
48871;SDS011;36154;51.674;7.824;2022-08-19T14:30:20;4.03;;;3.75;;
48871;SDS011;36154;51.674;7.824;2022-08-19T14:32:52;4.10;;;3.80;;
48871;SDS011;36154;51.674;7.824;2022-08-19T14:35:18;4.03;;;3.72;;
48871;SDS011;36154;51.674;7.824;2022-08-19T14:37:46;4.55;;;4.15;;
48871;SDS011;36154;51.674;7.824;2022-08-19T14:40:13;5.10;;;4.70;;
48871;SDS011;36154;51.674;7.824;2022-08-19T14:42:41;6.18;;;5.00;;
48871;SDS011;36154;51.674;7.824;2022-08-19T14:45:08;8.77;;;4.95;;
48871;SDS011;36154;51.674;7.824;2022-08-19T14:47:34;7.60;;;5.00;;
48871;SDS011;36154;51.674;7.824;2022-08-19T14:49:59;8.73;;;4.70;;
48871;SDS011;36154;51.674;7.824;2022-08-19T14:52:25;11.32;;;5.60;;
48871;SDS011;36154;51.674;7.824;2022-08-19T14:54:50;7.60;;;4.97;;